sensor_id;sensor_type;location;lat;lon;timestamp;temperature;humidity
10123;DHT22;5101;49.038;8.710;2023-06-22T00:01:49;22.50;99.90
10123;DHT22;5101;49.038;8.710;2023-06-22T00:04:15;22.40;99.90
10123;DHT22;5101;49.038;8.710;2023-06-22T00:06:41;22.40;99.90
10123;DHT22;5101;49.038;8.710;2023-06-22T00:09:06;22.40;99.90
10123;DHT22;5101;49.038;8.710;2023-06-22T00:11:33;22.40;99.90
10123;DHT22;5101;49.038;8.710;2023-06-22T00:13:59;22.40;99.90
10123;DHT22;5101;49.038;8.710;2023-06-22T00:16:24;22.30;99.90
10123;DHT22;5101;49.038;8.710;2023-06-22T00:18:50;22.30;99.90
10123;DHT22;5101;49.038;8.710;2023-06-22T00:21:15;22.30;99.90
10123;DHT22;5101;49.038;8.710;2023-06-22T00:23:41;22.20;99.90
10123;DHT22;5101;49.038;8.710;2023-06-22T00:26:07;22.20;99.90
10123;DHT22;5101;49.038;8.710;2023-06-22T00:28:34;22.20;99.90
10123;DHT22;5101;49.038;8.710;2023-06-22T00:30:59;22.20;99.90
10123;DHT22;5101;49.038;8.710;2023-06-22T00:33:26;22.10;99.90
10123;DHT22;5101;49.038;8.710;2023-06-22T00:35:51;22.10;99.90
10123;DHT22;5101;49.038;8.710;2023-06-22T00:38:18;22.10;99.90
10123;DHT22;5101;49.038;8.710;2023-06-22T00:40:44;22.10;99.90
10123;DHT22;5101;49.038;8.710;2023-06-22T00:43:10;22.00;99.90
10123;DHT22;5101;49.038;8.710;2023-06-22T00:45:35;21.90;99.90
10123;DHT22;5101;49.038;8.710;2023-06-22T00:48:02;21.80;99.90
10123;DHT22;5101;49.038;8.710;2023-06-22T00:50:30;21.80;99.90
10123;DHT22;5101;49.038;8.710;2023-06-22T00:53:00;21.70;99.90
10123;DHT22;5101;49.038;8.710;2023-06-22T00:55:26;21.70;99.90
10123;DHT22;5101;49.038;8.710;2023-06-22T00:57:52;21.70;99.90
10123;DHT22;5101;49.038;8.710;2023-06-22T01:00:23;21.70;99.90
10123;DHT22;5101;49.038;8.710;2023-06-22T01:02:50;21.60;99.90
10123;DHT22;5101;49.038;8.710;2023-06-22T01:05:20;21.60;99.90
10123;DHT22;5101;49.038;8.710;2023-06-22T01:10:51;21.60;99.90
10123;DHT22;5101;49.038;8.710;2023-06-22T01:13:36;21.50;99.90
10123;DHT22;5101;49.038;8.710;2023-06-22T01:16:13;21.50;99.90
10123;DHT22;5101;49.038;8.710;2023-06-22T01:18:42;21.50;99.90
10123;DHT22;5101;49.038;8.710;2023-06-22T01:21:12;21.50;99.90
10123;DHT22;5101;49.038;8.710;2023-06-22T01:24:11;21.40;99.90
10123;DHT22;5101;49.038;8.710;2023-06-22T01:26:48;21.50;99.90
10123;DHT22;5101;49.038;8.710;2023-06-22T01:29:20;21.40;99.90
10123;DHT22;5101;49.038;8.710;2023-06-22T01:31:48;21.40;99.90
10123;DHT22;5101;49.038;8.710;2023-06-22T01:34:15;21.40;99.90
10123;DHT22;5101;49.038;8.710;2023-06-22T01:36:42;21.40;99.90
10123;DHT22;5101;49.038;8.710;2023-06-22T01:39:08;21.30;99.90
10123;DHT22;5101;49.038;8.710;2023-06-22T01:41:37;21.30;99.90
10123;DHT22;5101;49.038;8.710;2023-06-22T01:44:05;21.20;99.90
10123;DHT22;5101;49.038;8.710;2023-06-22T01:46:34;21.20;99.90
10123;DHT22;5101;49.038;8.710;2023-06-22T01:49:00;21.10;99.90
10123;DHT22;5101;49.038;8.710;2023-06-22T01:51:26;21.10;99.90
10123;DHT22;5101;49.038;8.710;2023-06-22T01:53:51;21.00;99.90
10123;DHT22;5101;49.038;8.710;2023-06-22T01:56:17;21.00;99.90
10123;DHT22;5101;49.038;8.710;2023-06-22T01:58:51;21.00;99.90
10123;DHT22;5101;49.038;8.710;2023-06-22T02:01:23;21.00;99.90
10123;DHT22;5101;49.038;8.710;2023-06-22T02:04:11;21.00;99.90
10123;DHT22;5101;49.038;8.710;2023-06-22T02:06:39;20.90;99.90
10123;DHT22;5101;49.038;8.710;2023-06-22T02:09:14;20.90;99.90
10123;DHT22;5101;49.038;8.710;2023-06-22T02:11:42;20.80;99.90
10123;DHT22;5101;49.038;8.710;2023-06-22T02:14:09;20.80;99.90
10123;DHT22;5101;49.038;8.710;2023-06-22T02:16:35;20.80;99.90
10123;DHT22;5101;49.038;8.710;2023-06-22T02:19:02;20.80;99.90
10123;DHT22;5101;49.038;8.710;2023-06-22T02:21:31;20.70;99.90
10123;DHT22;5101;49.038;8.710;2023-06-22T02:23:57;20.70;99.90
10123;DHT22;5101;49.038;8.710;2023-06-22T02:26:25;20.70;99.90
10123;DHT22;5101;49.038;8.710;2023-06-22T02:28:51;20.70;99.90
10123;DHT22;5101;49.038;8.710;2023-06-22T02:31:17;20.70;99.90
10123;DHT22;5101;49.038;8.710;2023-06-22T02:33:42;20.70;99.90
10123;DHT22;5101;49.038;8.710;2023-06-22T02:36:09;20.60;99.90
10123;DHT22;5101;49.038;8.710;2023-06-22T02:38:37;20.60;99.90
10123;DHT22;5101;49.038;8.710;2023-06-22T02:41:03;20.60;99.90
10123;DHT22;5101;49.038;8.710;2023-06-22T02:43:28;20.60;99.90
10123;DHT22;5101;49.038;8.710;2023-06-22T02:45:55;20.50;99.90
10123;DHT22;5101;49.038;8.710;2023-06-22T02:48:20;20.50;99.90
10123;DHT22;5101;49.038;8.710;2023-06-22T02:50:46;20.50;99.90
10123;DHT22;5101;49.038;8.710;2023-06-22T02:53:11;20.40;99.90
10123;DHT22;5101;49.038;8.710;2023-06-22T02:55:37;20.40;99.90
10123;DHT22;5101;49.038;8.710;2023-06-22T02:58:05;20.40;99.90
10123;DHT22;5101;49.038;8.710;2023-06-22T03:00:31;20.40;99.90
10123;DHT22;5101;49.038;8.710;2023-06-22T03:02:57;20.30;99.90
10123;DHT22;5101;49.038;8.710;2023-06-22T03:05:23;20.30;99.90
10123;DHT22;5101;49.038;8.710;2023-06-22T03:07:49;20.30;99.90
10123;DHT22;5101;49.038;8.710;2023-06-22T03:10:15;20.30;99.90
10123;DHT22;5101;49.038;8.710;2023-06-22T03:12:42;20.30;99.90
10123;DHT22;5101;49.038;8.710;2023-06-22T03:15:09;20.30;99.90
10123;DHT22;5101;49.038;8.710;2023-06-22T03:17:36;20.20;99.90
10123;DHT22;5101;49.038;8.710;2023-06-22T03:20:02;20.20;99.90
10123;DHT22;5101;49.038;8.710;2023-06-22T03:22:36;20.20;99.90
10123;DHT22;5101;49.038;8.710;2023-06-22T03:25:02;20.20;99.90
10123;DHT22;5101;49.038;8.710;2023-06-22T03:27:28;20.10;99.90
10123;DHT22;5101;49.038;8.710;2023-06-22T03:29:53;20.10;99.90
10123;DHT22;5101;49.038;8.710;2023-06-22T03:32:18;20.10;99.90
10123;DHT22;5101;49.038;8.710;2023-06-22T03:34:44;20.10;99.90
10123;DHT22;5101;49.038;8.710;2023-06-22T03:37:13;20.10;99.90
10123;DHT22;5101;49.038;8.710;2023-06-22T03:39:39;20.10;99.90
10123;DHT22;5101;49.038;8.710;2023-06-22T03:42:05;20.00;99.90
10123;DHT22;5101;49.038;8.710;2023-06-22T03:44:31;20.00;99.90
10123;DHT22;5101;49.038;8.710;2023-06-22T03:46:56;20.00;99.90
10123;DHT22;5101;49.038;8.710;2023-06-22T03:49:22;20.00;99.90
10123;DHT22;5101;49.038;8.710;2023-06-22T03:51:47;20.00;99.90
10123;DHT22;5101;49.038;8.710;2023-06-22T03:54:13;20.00;99.90
10123;DHT22;5101;49.038;8.710;2023-06-22T03:56:38;20.00;99.90
10123;DHT22;5101;49.038;8.710;2023-06-22T03:59:04;20.00;99.90
10123;DHT22;5101;49.038;8.710;2023-06-22T04:01:29;19.90;99.90
10123;DHT22;5101;49.038;8.710;2023-06-22T04:03:55;19.90;99.90
10123;DHT22;5101;49.038;8.710;2023-06-22T04:06:20;20.00;99.90
10123;DHT22;5101;49.038;8.710;2023-06-22T04:08:47;20.00;99.90
10123;DHT22;5101;49.038;8.710;2023-06-22T04:11:17;19.90;99.90
10123;DHT22;5101;49.038;8.710;2023-06-22T04:13:43;19.90;99.90
10123;DHT22;5101;49.038;8.710;2023-06-22T04:16:09;19.90;99.90
10123;DHT22;5101;49.038;8.710;2023-06-22T04:18:34;19.90;99.90
10123;DHT22;5101;49.038;8.710;2023-06-22T04:21:00;20.00;99.90
10123;DHT22;5101;49.038;8.710;2023-06-22T04:23:25;20.00;99.90
10123;DHT22;5101;49.038;8.710;2023-06-22T04:25:51;20.00;99.90
10123;DHT22;5101;49.038;8.710;2023-06-22T04:28:17;20.00;99.90
10123;DHT22;5101;49.038;8.710;2023-06-22T04:30:42;20.00;99.90
10123;DHT22;5101;49.038;8.710;2023-06-22T04:33:15;20.00;99.90
10123;DHT22;5101;49.038;8.710;2023-06-22T04:35:41;20.10;99.90
10123;DHT22;5101;49.038;8.710;2023-06-22T04:38:07;20.10;99.90
10123;DHT22;5101;49.038;8.710;2023-06-22T04:40:33;20.10;99.90
10123;DHT22;5101;49.038;8.710;2023-06-22T04:42:59;20.20;99.90
10123;DHT22;5101;49.038;8.710;2023-06-22T04:45:28;20.20;99.90
10123;DHT22;5101;49.038;8.710;2023-06-22T04:47:54;20.30;99.90
10123;DHT22;5101;49.038;8.710;2023-06-22T04:50:20;20.30;99.90
10123;DHT22;5101;49.038;8.710;2023-06-22T04:52:47;20.40;99.90
10123;DHT22;5101;49.038;8.710;2023-06-22T04:55:13;20.40;99.90
10123;DHT22;5101;49.038;8.710;2023-06-22T04:57:38;20.50;99.90
10123;DHT22;5101;49.038;8.710;2023-06-22T05:00:05;20.50;99.90
10123;DHT22;5101;49.038;8.710;2023-06-22T05:02:40;20.60;99.90
10123;DHT22;5101;49.038;8.710;2023-06-22T05:05:06;20.60;99.90
10123;DHT22;5101;49.038;8.710;2023-06-22T05:07:35;20.60;99.90
10123;DHT22;5101;49.038;8.710;2023-06-22T05:10:04;20.70;99.90
10123;DHT22;5101;49.038;8.710;2023-06-22T05:12:30;20.70;99.90
10123;DHT22;5101;49.038;8.710;2023-06-22T05:14:56;20.70;99.90
10123;DHT22;5101;49.038;8.710;2023-06-22T05:17:22;20.80;99.90
10123;DHT22;5101;49.038;8.710;2023-06-22T05:19:48;20.80;99.90
10123;DHT22;5101;49.038;8.710;2023-06-22T05:22:17;20.90;99.90
10123;DHT22;5101;49.038;8.710;2023-06-22T05:24:42;21.00;99.90
10123;DHT22;5101;49.038;8.710;2023-06-22T05:27:09;21.00;99.90
10123;DHT22;5101;49.038;8.710;2023-06-22T05:29:35;21.10;99.90
10123;DHT22;5101;49.038;8.710;2023-06-22T05:32:01;21.20;99.90
10123;DHT22;5101;49.038;8.710;2023-06-22T05:34:26;21.30;99.90
10123;DHT22;5101;49.038;8.710;2023-06-22T05:36:52;21.40;99.90
10123;DHT22;5101;49.038;8.710;2023-06-22T05:39:18;21.50;99.90
10123;DHT22;5101;49.038;8.710;2023-06-22T05:41:44;21.60;99.90
10123;DHT22;5101;49.038;8.710;2023-06-22T05:44:10;21.60;99.90
10123;DHT22;5101;49.038;8.710;2023-06-22T05:46:35;21.70;99.90
10123;DHT22;5101;49.038;8.710;2023-06-22T05:49:01;21.80;99.90
10123;DHT22;5101;49.038;8.710;2023-06-22T05:51:27;21.90;99.90
10123;DHT22;5101;49.038;8.710;2023-06-22T05:53:52;22.00;99.90
10123;DHT22;5101;49.038;8.710;2023-06-22T05:56:18;22.10;99.90
10123;DHT22;5101;49.038;8.710;2023-06-22T05:58:43;22.20;99.90
10123;DHT22;5101;49.038;8.710;2023-06-22T06:01:09;22.40;99.90
10123;DHT22;5101;49.038;8.710;2023-06-22T06:03:34;22.50;99.90
10123;DHT22;5101;49.038;8.710;2023-06-22T06:06:06;22.70;99.90
10123;DHT22;5101;49.038;8.710;2023-06-22T06:08:32;22.90;99.90
10123;DHT22;5101;49.038;8.710;2023-06-22T06:10:57;23.00;99.90
10123;DHT22;5101;49.038;8.710;2023-06-22T06:13:23;23.20;99.90
10123;DHT22;5101;49.038;8.710;2023-06-22T06:15:49;23.40;99.90
10123;DHT22;5101;49.038;8.710;2023-06-22T06:18:16;23.50;99.90
10123;DHT22;5101;49.038;8.710;2023-06-22T06:20:42;23.70;99.90
10123;DHT22;5101;49.038;8.710;2023-06-22T06:23:07;23.90;99.90
10123;DHT22;5101;49.038;8.710;2023-06-22T06:25:33;24.10;99.90
10123;DHT22;5101;49.038;8.710;2023-06-22T06:27:58;24.40;99.90
10123;DHT22;5101;49.038;8.710;2023-06-22T06:30:24;24.60;99.90
10123;DHT22;5101;49.038;8.710;2023-06-22T06:32:50;24.90;99.90
10123;DHT22;5101;49.038;8.710;2023-06-22T06:35:15;25.10;99.90
10123;DHT22;5101;49.038;8.710;2023-06-22T06:37:44;25.40;99.90
10123;DHT22;5101;49.038;8.710;2023-06-22T06:40:11;25.80;99.90
10123;DHT22;5101;49.038;8.710;2023-06-22T06:42:41;26.00;99.90
10123;DHT22;5101;49.038;8.710;2023-06-22T06:45:15;26.30;99.30
10123;DHT22;5101;49.038;8.710;2023-06-22T06:47:40;26.50;98.80
10123;DHT22;5101;49.038;8.710;2023-06-22T06:50:07;26.70;97.90
10123;DHT22;5101;49.038;8.710;2023-06-22T06:52:33;26.90;96.90
10123;DHT22;5101;49.038;8.710;2023-06-22T06:54:59;27.20;96.60
10123;DHT22;5101;49.038;8.710;2023-06-22T06:57:24;27.40;96.10
10123;DHT22;5101;49.038;8.710;2023-06-22T06:59:54;27.60;94.70
10123;DHT22;5101;49.038;8.710;2023-06-22T07:02:20;27.70;93.60
10123;DHT22;5101;49.038;8.710;2023-06-22T07:04:46;27.90;93.50
10123;DHT22;5101;49.038;8.710;2023-06-22T07:07:12;28.10;93.40
10123;DHT22;5101;49.038;8.710;2023-06-22T07:09:37;28.30;92.80
10123;DHT22;5101;49.038;8.710;2023-06-22T07:12:03;28.30;91.90
10123;DHT22;5101;49.038;8.710;2023-06-22T07:14:29;28.50;91.30
10123;DHT22;5101;49.038;8.710;2023-06-22T07:16:54;28.70;90.60
10123;DHT22;5101;49.038;8.710;2023-06-22T07:19:27;28.90;90.00
10123;DHT22;5101;49.038;8.710;2023-06-22T07:21:53;29.00;88.90
10123;DHT22;5101;49.038;8.710;2023-06-22T07:24:20;29.30;89.50
10123;DHT22;5101;49.038;8.710;2023-06-22T07:26:49;29.40;89.00
10123;DHT22;5101;49.038;8.710;2023-06-22T07:29:19;29.50;87.30
10123;DHT22;5101;49.038;8.710;2023-06-22T07:31:46;29.60;85.40
10123;DHT22;5101;49.038;8.710;2023-06-22T07:34:12;29.80;84.80
10123;DHT22;5101;49.038;8.710;2023-06-22T07:36:38;29.90;84.30
10123;DHT22;5101;49.038;8.710;2023-06-22T07:39:04;30.10;84.90
10123;DHT22;5101;49.038;8.710;2023-06-22T07:41:29;30.10;83.20
10123;DHT22;5101;49.038;8.710;2023-06-22T07:43:55;30.30;81.40
10123;DHT22;5101;49.038;8.710;2023-06-22T07:46:21;30.40;80.80
10123;DHT22;5101;49.038;8.710;2023-06-22T07:48:47;30.60;80.40
10123;DHT22;5101;49.038;8.710;2023-06-22T07:51:12;30.70;79.10
10123;DHT22;5101;49.038;8.710;2023-06-22T07:53:39;30.80;78.20
10123;DHT22;5101;49.038;8.710;2023-06-22T07:56:05;31.00;77.70
10123;DHT22;5101;49.038;8.710;2023-06-22T07:58:32;31.10;77.90
10123;DHT22;5101;49.038;8.710;2023-06-22T08:00:58;31.30;78.80
10123;DHT22;5101;49.038;8.710;2023-06-22T08:03:24;31.30;76.70
10123;DHT22;5101;49.038;8.710;2023-06-22T08:05:49;31.40;76.70
10123;DHT22;5101;49.038;8.710;2023-06-22T08:08:15;31.50;74.40
10123;DHT22;5101;49.038;8.710;2023-06-22T08:10:41;31.50;74.00
10123;DHT22;5101;49.038;8.710;2023-06-22T08:13:07;31.60;73.90
10123;DHT22;5101;49.038;8.710;2023-06-22T08:15:33;31.70;72.00
10123;DHT22;5101;49.038;8.710;2023-06-22T08:17:59;31.80;70.60
10123;DHT22;5101;49.038;8.710;2023-06-22T08:20:26;31.80;70.10
10123;DHT22;5101;49.038;8.710;2023-06-22T08:22:55;31.90;69.60
10123;DHT22;5101;49.038;8.710;2023-06-22T08:25:20;32.00;70.40
10123;DHT22;5101;49.038;8.710;2023-06-22T08:27:47;32.00;69.30
10123;DHT22;5101;49.038;8.710;2023-06-22T08:30:14;32.10;67.60
10123;DHT22;5101;49.038;8.710;2023-06-22T08:32:40;32.20;67.10
10123;DHT22;5101;49.038;8.710;2023-06-22T08:35:05;32.20;66.10
10123;DHT22;5101;49.038;8.710;2023-06-22T08:37:34;32.30;66.00
10123;DHT22;5101;49.038;8.710;2023-06-22T08:40:02;32.40;64.20
10123;DHT22;5101;49.038;8.710;2023-06-22T08:42:30;32.40;63.70
10123;DHT22;5101;49.038;8.710;2023-06-22T08:44:56;32.40;62.40
10123;DHT22;5101;49.038;8.710;2023-06-22T08:47:22;32.30;63.90
10123;DHT22;5101;49.038;8.710;2023-06-22T08:49:48;32.20;65.70
10123;DHT22;5101;49.038;8.710;2023-06-22T08:52:14;32.20;66.00
10123;DHT22;5101;49.038;8.710;2023-06-22T08:54:39;32.00;64.50
10123;DHT22;5101;49.038;8.710;2023-06-22T08:57:05;31.80;65.20
10123;DHT22;5101;49.038;8.710;2023-06-22T08:59:31;31.70;64.90
10123;DHT22;5101;49.038;8.710;2023-06-22T09:01:57;31.50;66.50
10123;DHT22;5101;49.038;8.710;2023-06-22T09:04:22;31.40;67.40
10123;DHT22;5101;49.038;8.710;2023-06-22T09:06:48;31.30;69.30
10123;DHT22;5101;49.038;8.710;2023-06-22T09:09:16;31.10;69.40
10123;DHT22;5101;49.038;8.710;2023-06-22T09:11:42;30.90;69.90
10123;DHT22;5101;49.038;8.710;2023-06-22T09:14:08;30.80;72.10
10123;DHT22;5101;49.038;8.710;2023-06-22T09:16:34;30.70;71.70
10123;DHT22;5101;49.038;8.710;2023-06-22T09:18:59;30.80;71.90
10123;DHT22;5101;49.038;8.710;2023-06-22T09:21:25;30.90;72.20
10123;DHT22;5101;49.038;8.710;2023-06-22T09:23:50;31.00;71.20
10123;DHT22;5101;49.038;8.710;2023-06-22T09:26:20;30.90;71.20
10123;DHT22;5101;49.038;8.710;2023-06-22T09:28:46;30.90;73.90
10123;DHT22;5101;49.038;8.710;2023-06-22T09:31:12;30.80;73.00
10123;DHT22;5101;49.038;8.710;2023-06-22T09:33:39;30.90;72.00
10123;DHT22;5101;49.038;8.710;2023-06-22T09:36:06;30.80;72.10
10123;DHT22;5101;49.038;8.710;2023-06-22T09:38:35;30.90;73.40
10123;DHT22;5101;49.038;8.710;2023-06-22T09:41:00;31.00;72.50
10123;DHT22;5101;49.038;8.710;2023-06-22T09:43:26;31.00;71.60
10123;DHT22;5101;49.038;8.710;2023-06-22T09:45:52;31.10;71.90
10123;DHT22;5101;49.038;8.710;2023-06-22T09:48:18;31.10;71.10
10123;DHT22;5101;49.038;8.710;2023-06-22T09:50:43;31.10;70.80
10123;DHT22;5101;49.038;8.710;2023-06-22T09:53:09;31.10;70.60
10123;DHT22;5101;49.038;8.710;2023-06-22T09:55:34;31.00;70.20
10123;DHT22;5101;49.038;8.710;2023-06-22T09:58:00;30.90;70.20
10123;DHT22;5101;49.038;8.710;2023-06-22T10:00:25;31.00;70.80
10123;DHT22;5101;49.038;8.710;2023-06-22T10:02:52;31.00;70.10
10123;DHT22;5101;49.038;8.710;2023-06-22T10:05:17;30.80;70.00
10123;DHT22;5101;49.038;8.710;2023-06-22T10:07:43;30.80;70.50
10123;DHT22;5101;49.038;8.710;2023-06-22T10:10:10;30.90;71.10
10123;DHT22;5101;49.038;8.710;2023-06-22T10:12:36;31.10;71.70
10123;DHT22;5101;49.038;8.710;2023-06-22T10:15:02;31.00;70.90
10123;DHT22;5101;49.038;8.710;2023-06-22T10:17:27;31.10;72.30
10123;DHT22;5101;49.038;8.710;2023-06-22T10:19:53;31.10;71.20
10123;DHT22;5101;49.038;8.710;2023-06-22T10:22:18;31.10;71.30
10123;DHT22;5101;49.038;8.710;2023-06-22T10:24:44;31.00;71.20
10123;DHT22;5101;49.038;8.710;2023-06-22T10:27:11;31.00;70.50
10123;DHT22;5101;49.038;8.710;2023-06-22T10:29:37;30.90;71.30
10123;DHT22;5101;49.038;8.710;2023-06-22T10:32:03;30.80;72.00
10123;DHT22;5101;49.038;8.710;2023-06-22T10:34:28;30.80;72.30
10123;DHT22;5101;49.038;8.710;2023-06-22T10:36:54;30.70;72.00
10123;DHT22;5101;49.038;8.710;2023-06-22T10:39:20;30.70;72.90
10123;DHT22;5101;49.038;8.710;2023-06-22T10:41:45;30.80;75.70
10123;DHT22;5101;49.038;8.710;2023-06-22T10:44:11;30.90;74.40
10123;DHT22;5101;49.038;8.710;2023-06-22T10:46:37;30.90;73.60
10123;DHT22;5101;49.038;8.710;2023-06-22T10:49:03;30.90;74.40
10123;DHT22;5101;49.038;8.710;2023-06-22T10:51:28;31.00;74.00
10123;DHT22;5101;49.038;8.710;2023-06-22T10:53:54;30.90;73.40
10123;DHT22;5101;49.038;8.710;2023-06-22T10:56:20;30.90;73.40
10123;DHT22;5101;49.038;8.710;2023-06-22T10:58:45;30.90;73.10
10123;DHT22;5101;49.038;8.710;2023-06-22T11:01:11;30.90;71.70
10123;DHT22;5101;49.038;8.710;2023-06-22T11:03:36;31.00;72.20
10123;DHT22;5101;49.038;8.710;2023-06-22T11:06:02;31.00;71.60
10123;DHT22;5101;49.038;8.710;2023-06-22T11:08:28;30.90;71.40
10123;DHT22;5101;49.038;8.710;2023-06-22T11:10:53;31.00;72.80
10123;DHT22;5101;49.038;8.710;2023-06-22T11:13:19;31.10;72.30
10123;DHT22;5101;49.038;8.710;2023-06-22T11:15:44;31.20;71.00
10123;DHT22;5101;49.038;8.710;2023-06-22T11:18:10;31.30;71.10
10123;DHT22;5101;49.038;8.710;2023-06-22T11:20:35;31.30;70.10
10123;DHT22;5101;49.038;8.710;2023-06-22T11:23:05;31.40;69.50
10123;DHT22;5101;49.038;8.710;2023-06-22T11:25:31;31.50;69.80
10123;DHT22;5101;49.038;8.710;2023-06-22T11:27:57;31.50;68.70
10123;DHT22;5101;49.038;8.710;2023-06-22T11:30:22;31.60;68.30
10123;DHT22;5101;49.038;8.710;2023-06-22T11:32:48;31.70;67.40
10123;DHT22;5101;49.038;8.710;2023-06-22T11:35:14;31.70;68.50
10123;DHT22;5101;49.038;8.710;2023-06-22T11:37:39;31.80;69.10
10123;DHT22;5101;49.038;8.710;2023-06-22T11:40:05;31.90;68.70
10123;DHT22;5101;49.038;8.710;2023-06-22T11:42:34;31.90;67.50
10123;DHT22;5101;49.038;8.710;2023-06-22T11:44:59;31.80;67.30
10123;DHT22;5101;49.038;8.710;2023-06-22T11:47:25;31.80;67.50
10123;DHT22;5101;49.038;8.710;2023-06-22T11:49:50;31.90;70.00
10123;DHT22;5101;49.038;8.710;2023-06-22T11:52:16;32.00;70.90
10123;DHT22;5101;49.038;8.710;2023-06-22T11:54:43;32.10;69.40
10123;DHT22;5101;49.038;8.710;2023-06-22T11:57:08;32.20;68.80
10123;DHT22;5101;49.038;8.710;2023-06-22T11:59:34;32.20;68.00
10123;DHT22;5101;49.038;8.710;2023-06-22T12:02:00;32.20;68.00
10123;DHT22;5101;49.038;8.710;2023-06-22T12:04:25;32.20;68.40
10123;DHT22;5101;49.038;8.710;2023-06-22T12:06:51;32.20;68.00
10123;DHT22;5101;49.038;8.710;2023-06-22T12:09:16;32.20;68.00
10123;DHT22;5101;49.038;8.710;2023-06-22T12:11:42;32.20;67.90
10123;DHT22;5101;49.038;8.710;2023-06-22T12:14:07;32.20;69.60
10123;DHT22;5101;49.038;8.710;2023-06-22T12:16:33;32.10;69.40
10123;DHT22;5101;49.038;8.710;2023-06-22T12:18:58;32.20;67.50
10123;DHT22;5101;49.038;8.710;2023-06-22T12:21:24;32.10;66.80
10123;DHT22;5101;49.038;8.710;2023-06-22T12:23:49;32.00;67.50
10123;DHT22;5101;49.038;8.710;2023-06-22T12:26:15;32.00;68.10
10123;DHT22;5101;49.038;8.710;2023-06-22T12:28:41;32.00;70.50
10123;DHT22;5101;49.038;8.710;2023-06-22T12:31:06;32.10;70.40
10123;DHT22;5101;49.038;8.710;2023-06-22T12:33:32;32.10;70.40
10123;DHT22;5101;49.038;8.710;2023-06-22T12:35:57;32.20;71.70
10123;DHT22;5101;49.038;8.710;2023-06-22T12:38:23;32.20;71.90
10123;DHT22;5101;49.038;8.710;2023-06-22T12:40:50;32.20;69.80
10123;DHT22;5101;49.038;8.710;2023-06-22T12:43:16;32.20;68.20
10123;DHT22;5101;49.038;8.710;2023-06-22T12:45:41;32.30;68.90
10123;DHT22;5101;49.038;8.710;2023-06-22T12:48:07;32.40;67.80
10123;DHT22;5101;49.038;8.710;2023-06-22T12:50:34;32.40;68.80
10123;DHT22;5101;49.038;8.710;2023-06-22T12:52:59;32.50;69.00
10123;DHT22;5101;49.038;8.710;2023-06-22T12:55:25;32.40;67.20
10123;DHT22;5101;49.038;8.710;2023-06-22T12:57:50;32.20;68.00
10123;DHT22;5101;49.038;8.710;2023-06-22T13:00:16;32.30;69.00
10123;DHT22;5101;49.038;8.710;2023-06-22T13:02:42;32.30;68.20
10123;DHT22;5101;49.038;8.710;2023-06-22T13:05:08;32.40;68.10
10123;DHT22;5101;49.038;8.710;2023-06-22T13:07:34;32.40;67.90
10123;DHT22;5101;49.038;8.710;2023-06-22T13:09:59;32.60;68.10
10123;DHT22;5101;49.038;8.710;2023-06-22T13:12:25;32.70;71.00
10123;DHT22;5101;49.038;8.710;2023-06-22T13:14:50;32.80;70.10
10123;DHT22;5101;49.038;8.710;2023-06-22T13:17:16;32.90;69.80
10123;DHT22;5101;49.038;8.710;2023-06-22T13:19:42;33.00;68.80
10123;DHT22;5101;49.038;8.710;2023-06-22T13:22:30;33.00;69.10
10123;DHT22;5101;49.038;8.710;2023-06-22T13:24:56;33.20;71.00
10123;DHT22;5101;49.038;8.710;2023-06-22T13:27:22;33.20;68.60
10123;DHT22;5101;49.038;8.710;2023-06-22T13:29:48;33.20;66.90
10123;DHT22;5101;49.038;8.710;2023-06-22T13:32:13;33.30;69.10
10123;DHT22;5101;49.038;8.710;2023-06-22T13:34:39;33.30;69.40
10123;DHT22;5101;49.038;8.710;2023-06-22T13:37:05;33.30;68.10
10123;DHT22;5101;49.038;8.710;2023-06-22T13:39:30;33.40;68.00
10123;DHT22;5101;49.038;8.710;2023-06-22T13:41:57;33.50;67.70
10123;DHT22;5101;49.038;8.710;2023-06-22T13:44:22;33.50;68.20
10123;DHT22;5101;49.038;8.710;2023-06-22T13:46:48;33.70;68.70
10123;DHT22;5101;49.038;8.710;2023-06-22T13:49:13;33.80;66.70
10123;DHT22;5101;49.038;8.710;2023-06-22T13:51:39;33.80;65.70
10123;DHT22;5101;49.038;8.710;2023-06-22T13:54:04;33.80;66.40
10123;DHT22;5101;49.038;8.710;2023-06-22T13:56:30;33.90;68.50
10123;DHT22;5101;49.038;8.710;2023-06-22T13:58:55;34.00;66.70
10123;DHT22;5101;49.038;8.710;2023-06-22T14:01:21;34.10;67.80
10123;DHT22;5101;49.038;8.710;2023-06-22T14:03:48;34.20;66.80
10123;DHT22;5101;49.038;8.710;2023-06-22T14:06:13;34.20;66.40
10123;DHT22;5101;49.038;8.710;2023-06-22T14:08:39;34.30;65.20
10123;DHT22;5101;49.038;8.710;2023-06-22T14:11:04;34.30;64.60
10123;DHT22;5101;49.038;8.710;2023-06-22T14:13:30;34.30;63.20
10123;DHT22;5101;49.038;8.710;2023-06-22T14:15:55;34.20;60.80
10123;DHT22;5101;49.038;8.710;2023-06-22T14:18:21;34.10;62.90
10123;DHT22;5101;49.038;8.710;2023-06-22T14:20:48;34.10;64.00
10123;DHT22;5101;49.038;8.710;2023-06-22T14:23:14;34.20;64.80
10123;DHT22;5101;49.038;8.710;2023-06-22T14:25:40;34.20;64.70
10123;DHT22;5101;49.038;8.710;2023-06-22T14:28:06;34.10;65.20
10123;DHT22;5101;49.038;8.710;2023-06-22T14:30:31;34.00;63.90
10123;DHT22;5101;49.038;8.710;2023-06-22T14:32:57;33.80;64.10
10123;DHT22;5101;49.038;8.710;2023-06-22T14:35:22;33.70;64.40
10123;DHT22;5101;49.038;8.710;2023-06-22T14:37:49;33.70;65.40
10123;DHT22;5101;49.038;8.710;2023-06-22T14:40:15;33.60;65.50
10123;DHT22;5101;49.038;8.710;2023-06-22T14:42:41;33.50;65.20
10123;DHT22;5101;49.038;8.710;2023-06-22T14:45:07;33.40;66.40
10123;DHT22;5101;49.038;8.710;2023-06-22T14:47:32;33.30;66.90
10123;DHT22;5101;49.038;8.710;2023-06-22T14:49:58;33.20;67.90
10123;DHT22;5101;49.038;8.710;2023-06-22T14:52:25;33.10;68.00
10123;DHT22;5101;49.038;8.710;2023-06-22T14:54:51;32.90;68.40
10123;DHT22;5101;49.038;8.710;2023-06-22T14:57:18;32.80;69.20
10123;DHT22;5101;49.038;8.710;2023-06-22T14:59:51;32.70;70.10
10123;DHT22;5101;49.038;8.710;2023-06-22T15:02:17;32.60;70.40
10123;DHT22;5101;49.038;8.710;2023-06-22T15:04:42;32.60;71.40
10123;DHT22;5101;49.038;8.710;2023-06-22T15:07:08;32.40;71.20
10123;DHT22;5101;49.038;8.710;2023-06-22T15:09:34;32.30;70.00
10123;DHT22;5101;49.038;8.710;2023-06-22T15:11:59;32.30;69.00
10123;DHT22;5101;49.038;8.710;2023-06-22T15:14:27;32.30;68.80
10123;DHT22;5101;49.038;8.710;2023-06-22T15:16:53;32.20;70.30
10123;DHT22;5101;49.038;8.710;2023-06-22T15:19:18;32.20;68.60
10123;DHT22;5101;49.038;8.710;2023-06-22T15:21:44;32.10;68.60
10123;DHT22;5101;49.038;8.710;2023-06-22T15:24:10;32.20;68.60
10123;DHT22;5101;49.038;8.710;2023-06-22T15:26:35;32.20;66.10
10123;DHT22;5101;49.038;8.710;2023-06-22T15:29:01;32.20;64.30
10123;DHT22;5101;49.038;8.710;2023-06-22T15:31:27;32.30;64.70
10123;DHT22;5101;49.038;8.710;2023-06-22T15:33:53;32.40;65.30
10123;DHT22;5101;49.038;8.710;2023-06-22T15:36:18;32.40;65.20
10123;DHT22;5101;49.038;8.710;2023-06-22T15:38:44;32.50;65.40
10123;DHT22;5101;49.038;8.710;2023-06-22T15:41:09;32.50;64.90
10123;DHT22;5101;49.038;8.710;2023-06-22T15:43:35;32.40;65.10